Time;durP1;ratioP1;P1;durP2;ratioP2;P2;SDS_P1;SDS_P2;PMS_P1;PMS_P2;Temp;Humidity;BMP_temperature;BMP_pressure;BME280_temperature;BME280_humidity;BME280_pressure;Samples;Min_cycle;Max_cycle;Signal;HPM_P1;HPM_P2
2021/10/20 00:01:45;;;;;;;;;9.00;7.00;;;;;18.96;56.78;98785.69;4769817;28;104057;-86
2021/10/20 00:04:13;;;;;;;;;8.00;7.00;;;;;18.97;56.81;98786.50;4787857;28;102519;-85
2021/10/20 00:06:40;;;;;;;;;8.00;7.33;;;;;18.98;56.84;98783.53;4810263;28;102895;-84
2021/10/20 00:09:08;;;;;;;;;10.33;8.00;;;;;19.01;56.57;98779.44;4748450;29;103518;-84
2021/10/20 00:11:37;;;;;;;;;8.00;6.67;;;;;19.02;56.85;98783.84;4816246;28;105961;-84
2021/10/20 00:14:04;;;;;;;;;8.00;7.00;;;;;19.02;56.73;98783.84;4804061;28;103053;-86
2021/10/20 00:16:32;;;;;;;;;9.33;8.00;;;;;19.02;56.74;98778.38;4807620;28;102531;-86
2021/10/20 00:19:00;;;;;;;;;10.33;9.00;;;;;19.03;57.02;98778.13;4823668;28;103034;-86
2021/10/20 00:21:29;;;;;;;;;6.67;6.00;;;;;19.04;56.72;98776.22;4817699;28;103399;-84
2021/10/20 00:23:59;;;;;;;;;8.33;6.00;;;;;19.05;56.57;98788.81;4810958;28;102518;-86
2021/10/20 00:26:27;;;;;;;;;5.33;5.00;;;;;19.07;56.89;98781.19;4796793;28;103125;-85
2021/10/20 00:28:55;;;;;;;;;8.00;7.67;;;;;19.07;56.70;98778.47;4783206;28;109793;-86
2021/10/20 00:31:22;;;;;;;;;7.67;7.00;;;;;19.07;56.80;98767.50;4801545;28;104123;-86
2021/10/20 00:33:50;;;;;;;;;7.33;6.00;;;;;19.06;56.93;98755.69;4824250;28;103825;-86
2021/10/20 00:36:17;;;;;;;;;7.00;6.33;;;;;19.09;57.01;98759.88;4823492;28;103128;-86
2021/10/20 00:38:44;;;;;;;;;6.00;6.00;;;;;19.10;56.57;98759.59;4809416;28;102251;-85
2021/10/20 00:41:12;;;;;;;;;7.00;7.00;;;;;19.10;56.75;98759.59;4806427;28;104704;-86
2021/10/20 00:43:40;;;;;;;;;9.00;7.67;;;;;19.10;57.07;98754.09;4812230;28;102663;-85
2021/10/20 00:46:12;;;;;;;;;7.67;6.00;;;;;19.12;56.96;98745.66;4807216;28;102716;-86
2021/10/20 00:48:39;;;;;;;;;7.67;7.00;;;;;19.13;56.78;98741.81;4812044;28;102477;-84
2021/10/20 00:51:06;;;;;;;;;7.67;7.00;;;;;19.13;56.89;98742.66;4821795;28;103610;-85
2021/10/20 00:53:33;;;;;;;;;8.33;6.67;;;;;19.13;56.77;98734.44;4813016;28;102567;-85
2021/10/20 00:56:00;;;;;;;;;6.00;5.33;;;;;19.14;56.57;98738.81;4796821;28;103133;-85
2021/10/20 00:58:27;;;;;;;;;9.33;8.00;;;;;19.15;56.86;98725.94;4809586;28;103616;-85
2021/10/20 01:00:54;;;;;;;;;8.67;7.67;;;;;19.14;56.15;98722.38;4807049;28;104387;-85
2021/10/20 01:03:21;;;;;;;;;6.00;6.00;;;;;19.15;56.75;98723.19;4729951;28;104140;-85
2021/10/20 01:05:49;;;;;;;;;9.00;8.33;;;;;19.15;56.62;98728.69;4808155;28;102399;-84
2021/10/20 01:08:16;;;;;;;;;6.33;6.33;;;;;19.16;56.86;98730.34;4817460;28;102106;-84
2021/10/20 01:10:43;;;;;;;;;9.67;8.00;;;;;19.16;56.57;98733.91;4809009;28;104053;-85
2021/10/20 01:13:11;;;;;;;;;8.00;7.67;;;;;19.18;56.59;98728.19;4797954;28;104156;-85
2021/10/20 01:15:38;;;;;;;;;8.00;5.67;;;;;19.17;56.85;98734.75;4817826;28;102398;-84
2021/10/20 01:18:05;;;;;;;;;8.33;8.00;;;;;19.17;56.58;98741.06;4806739;28;102424;-86
2021/10/20 01:20:33;;;;;;;;;8.00;7.00;;;;;19.18;56.68;98730.94;4767642;28;109846;-86
2021/10/20 01:23:00;;;;;;;;;7.67;7.67;;;;;19.18;56.94;98728.19;4806255;28;102222;-86
2021/10/20 01:25:27;;;;;;;;;5.67;5.00;;;;;19.18;56.54;98726.25;4805924;28;104330;-84
2021/10/20 01:27:56;;;;;;;;;9.00;7.00;;;;;19.18;56.73;98728.19;4773968;28;103753;-85
2021/10/20 01:30:23;;;;;;;;;6.33;6.33;;;;;19.18;56.39;98728.19;4814871;28;104367;-85
2021/10/20 01:32:50;;;;;;;;;7.67;6.67;;;;;19.18;56.55;98722.72;4821201;28;102377;-86
2021/10/20 01:35:18;;;;;;;;;7.00;6.00;;;;;19.20;56.48;98719.69;4825954;28;102381;-85
2021/10/20 01:37:45;;;;;;;;;8.00;7.67;;;;;19.19;56.46;98707.91;4821892;28;104187;-85
2021/10/20 01:40:12;;;;;;;;;7.00;6.33;;;;;19.19;56.33;98707.91;4809832;28;104470;-85
2021/10/20 01:42:39;;;;;;;;;6.00;6.00;;;;;19.18;56.48;98717.22;4812168;28;103787;-84
2021/10/20 01:45:12;;;;;;;;;7.67;6.67;;;;;19.19;56.59;98713.38;4819823;28;104689;-86
2021/10/20 01:47:40;;;;;;;;;7.00;6.33;;;;;19.19;56.16;98707.91;4802953;28;103661;-85
2021/10/20 01:50:08;;;;;;;;;8.00;7.33;;;;;19.20;56.34;98704.09;4824560;28;103956;-84
2021/10/20 01:52:35;;;;;;;;;6.67;6.00;;;;;19.20;56.59;98704.09;4812048;28;102478;-84
2021/10/20 01:55:05;;;;;;;;;5.33;5.33;;;;;19.20;56.25;98697.75;4803103;28;102660;-85
2021/10/20 01:57:32;;;;;;;;;5.33;5.33;;;;;19.20;56.42;98690.38;4816608;28;103794;-85
2021/10/20 01:59:59;;;;;;;;;6.67;4.67;;;;;19.20;56.18;98684.88;4820891;28;104070;-84
2021/10/20 02:02:26;;;;;;;;;7.00;5.67;;;;;19.20;56.19;98690.38;4820210;28;102199;-85
2021/10/20 02:04:53;;;;;;;;;6.00;5.00;;;;;19.20;56.33;98693.13;4777860;29;110596;-84
2021/10/20 02:07:20;;;;;;;;;7.67;7.00;;;;;19.21;56.23;98688.47;4802699;28;102583;-84
2021/10/20 02:09:47;;;;;;;;;8.00;7.00;;;;;19.20;56.00;98693.13;4794170;28;104111;-85
2021/10/20 02:12:14;;;;;;;;;7.00;6.33;;;;;19.20;55.99;98695.84;4789763;28;104525;-85
2021/10/20 02:14:41;;;;;;;;;6.67;6.00;;;;;19.21;56.05;98693.94;4820421;28;102839;-85
2021/10/20 02:17:08;;;;;;;;;7.00;6.00;;;;;19.20;56.06;98692.28;4822949;28;102282;-85
2021/10/20 02:19:35;;;;;;;;;7.00;5.67;;;;;19.20;55.88;98693.13;4815138;28;108805;-85
2021/10/20 02:22:03;;;;;;;;;5.33;5.33;;;;;19.20;56.01;98686.81;4813620;28;102403;-85
2021/10/20 02:24:30;;;;;;;;;6.67;6.67;;;;;19.20;56.06;98690.38;4818499;28;102114;-83
2021/10/20 02:26:57;;;;;;;;;8.00;7.33;;;;;19.20;56.14;98684.88;4803380;28;102256;-85
2021/10/20 02:29:24;;;;;;;;;8.00;6.00;;;;;19.17;56.20;98688.97;4825628;28;104195;-85
2021/10/20 02:31:51;;;;;;;;;7.00;6.00;;;;;19.21;55.86;98689.28;4818136;28;102260;-84
2021/10/20 02:34:20;;;;;;;;;6.67;6.67;;;;;19.21;55.90;98689.28;4815764;28;102588;-85
2021/10/20 02:36:47;;;;;;;;;7.00;6.00;;;;;19.20;56.00;98676.66;4823516;28;102101;-85
2021/10/20 02:39:14;;;;;;;;;8.67;7.00;;;;;19.21;56.06;98682.97;4820580;28;104081;-85
2021/10/20 02:41:41;;;;;;;;;5.00;5.00;;;;;19.21;55.93;98669.28;4822215;28;103766;-85
2021/10/20 02:44:08;;;;;;;;;7.00;6.33;;;;;19.20;55.84;98671.19;4821198;28;102418;-85
2021/10/20 02:46:35;;;;;;;;;8.00;7.50;;;;;19.20;55.67;98671.19;4823039;28;102319;-85
2021/10/20 02:49:02;;;;;;;;;6.00;6.00;;;;;19.20;55.45;98668.44;4819077;28;104095;-85
2021/10/20 02:51:30;;;;;;;;;5.67;5.00;;;;;19.20;55.67;98671.19;4819304;28;102736;-86
2021/10/20 02:53:57;;;;;;;;;6.67;6.00;;;;;19.20;55.75;98657.47;4826739;28;102931;-86
2021/10/20 02:56:24;;;;;;;;;5.00;5.00;;;;;19.20;55.60;98665.69;4820119;28;102151;-85
2021/10/20 02:58:52;;;;;;;;;6.67;6.33;;;;;19.21;55.67;98672.84;4830278;28;104091;-84
2021/10/20 03:01:19;;;;;;;;;5.67;5.67;;;;;19.20;55.80;98676.66;4822499;28;103171;-86
2021/10/20 03:03:46;;;;;;;;;5.00;4.00;;;;;19.21;55.78;98686.56;4817864;28;103470;-85
2021/10/20 03:06:14;;;;;;;;;7.00;6.00;;;;;19.22;55.43;98674.50;4808649;28;103018;-84
2021/10/20 03:08:41;;;;;;;;;6.67;6.00;;;;;19.22;55.63;98677.25;4823462;28;104784;-86
2021/10/20 03:11:08;;;;;;;;;7.00;6.00;;;;;19.22;55.67;98669.03;4825361;28;102373;-86
2021/10/20 03:13:35;;;;;;;;;5.67;5.33;;;;;19.22;55.79;98671.78;4828588;28;102173;-86
2021/10/20 03:16:02;;;;;;;;;6.33;5.67;;;;;19.16;55.61;98654.44;4829163;28;102526;-85
2021/10/20 03:18:29;;;;;;;;;6.33;6.33;;;;;19.22;55.60;98660.81;4823937;28;104026;-86
2021/10/20 03:20:56;;;;;;;;;7.00;6.33;;;;;19.23;55.68;98665.19;4825805;28;102378;-85
2021/10/20 03:23:23;;;;;;;;;5.00;4.33;;;;;19.23;55.53;98667.91;4818515;28;102432;-83
2021/10/20 03:25:51;;;;;;;;;6.33;6.00;;;;;19.23;55.50;98659.69;4822634;28;105421;-84
2021/10/20 03:28:18;;;;;;;;;4.33;4.33;;;;;19.23;55.25;98658.91;4818349;28;104893;-86
2021/10/20 03:30:45;;;;;;;;;6.00;5.00;;;;;19.22;55.46;98649.84;4824670;28;103240;-86
2021/10/20 03:33:12;;;;;;;;;5.00;4.00;;;;;19.23;55.34;98659.69;4798187;28;103374;-84
2021/10/20 03:35:39;;;;;;;;;5.33;5.00;;;;;19.23;55.34;98651.47;4829589;28;102647;-86
2021/10/20 03:38:06;;;;;;;;;6.00;5.00;;;;;19.23;55.38;98651.47;4825026;28;108790;-84
2021/10/20 03:40:34;;;;;;;;;5.00;5.00;;;;;19.24;55.42;98649.56;4803200;28;102736;-85
2021/10/20 03:43:01;;;;;;;;;7.00;6.00;;;;;19.24;55.16;98647.66;4827807;28;102285;-86
2021/10/20 03:45:28;;;;;;;;;7.00;6.00;;;;;19.23;55.33;98637.75;4823488;28;102244;-85
2021/10/20 03:47:56;;;;;;;;;6.00;5.00;;;;;19.23;55.41;98634.22;4816825;28;104202;-84
2021/10/20 03:50:23;;;;;;;;;5.00;5.00;;;;;19.24;55.26;98628.47;4820103;28;102447;-85
2021/10/20 03:52:50;;;;;;;;;5.67;5.00;;;;;19.24;55.54;98631.22;4824815;28;102681;-85
2021/10/20 03:55:17;;;;;;;;;5.00;5.00;;;;;19.23;55.40;98626.81;4818900;28;102992;-85
2021/10/20 03:57:44;;;;;;;;;4.00;4.00;;;;;19.24;55.27;98628.47;4797923;28;104858;-85
2021/10/20 04:00:13;;;;;;;;;6.00;5.00;;;;;19.24;55.23;98622.97;4822650;28;102708;-84
2021/10/20 04:02:43;;;;;;;;;7.00;7.00;;;;;19.23;55.27;98624.06;4812004;28;103418;-84
2021/10/20 04:05:14;;;;;;;;;6.00;6.00;;;;;19.21;55.13;98623.50;4813289;28;102202;-84
2021/10/20 04:07:41;;;;;;;;;4.67;4.33;;;;;19.17;54.97;98623.19;4808138;28;108931;-84
2021/10/20 04:10:11;;;;;;;;;6.00;5.00;;;;;19.16;54.85;98631.66;4816608;28;102554;-84
2021/10/20 04:12:38;;;;;;;;;4.00;4.00;;;;;19.15;55.04;98630.84;4821900;28;103250;-83
2021/10/20 04:15:06;;;;;;;;;6.00;5.00;;;;;19.14;54.93;98622.84;4825342;28;103777;-84
2021/10/20 04:17:33;;;;;;;;;7.67;6.00;;;;;19.11;54.89;98607.75;4820610;28;104394;-84
2021/10/20 04:20:00;;;;;;;;;7.00;6.00;;;;;19.10;54.85;98605.25;4819611;28;102796;-83
2021/10/20 04:22:27;;;;;;;;;7.33;6.33;;;;;19.08;54.82;98607.44;4825722;28;102307;-84
2021/10/20 04:24:54;;;;;;;;;5.00;4.00;;;;;19.06;54.61;98613.19;4805889;28;102692;-83
2021/10/20 04:27:23;;;;;;;;;7.00;6.00;;;;;19.05;54.74;98607.94;4828047;28;104067;-84
2021/10/20 04:29:50;;;;;;;;;6.00;5.67;;;;;19.04;54.65;98606.31;4829312;28;102246;-84
2021/10/20 04:32:17;;;;;;;;;6.67;5.33;;;;;19.02;54.61;98603.81;4816014;28;103668;-84
2021/10/20 04:34:44;;;;;;;;;5.33;5.00;;;;;19.02;54.57;98592.00;4794418;28;104043;-83
2021/10/20 04:37:11;;;;;;;;;5.00;5.00;;;;;19.06;54.88;98591.25;4818665;28;102878;-82
2021/10/20 04:39:38;;;;;;;;;5.00;5.00;;;;;19.09;54.87;98593.47;4820211;28;103859;-83
2021/10/20 04:42:05;;;;;;;;;5.67;5.33;;;;;19.11;55.39;98599.53;4796310;28;102372;-83
2021/10/20 04:44:32;;;;;;;;;5.00;5.00;;;;;19.15;55.92;98591.63;4823002;28;102242;-84
2021/10/20 04:46:59;;;;;;;;;6.00;6.00;;;;;19.17;56.55;98594.94;4817935;28;104063;-82
2021/10/20 04:49:26;;;;;;;;;6.33;4.33;;;;;19.21;56.63;98589.78;4814245;28;102662;-83
2021/10/20 04:51:53;;;;;;;;;4.67;4.33;;;;;19.22;56.55;98592.28;4820926;28;102205;-83
2021/10/20 04:54:20;;;;;;;;;7.00;7.00;;;;;19.24;56.89;98601.06;4818084;28;103289;-82
2021/10/20 04:56:47;;;;;;;;;5.33;4.67;;;;;19.23;56.73;98582.13;4822725;28;104243;-84
2021/10/20 04:59:14;;;;;;;;;8.00;6.00;;;;;19.27;56.79;98592.34;4812574;28;102735;-84
2021/10/20 05:01:41;;;;;;;;;6.00;5.00;;;;;19.29;56.83;98592.06;4830233;28;103743;-83
2021/10/20 05:04:08;;;;;;;;;6.00;5.00;;;;;19.31;56.74;98587.16;4821140;28;102473;-82
2021/10/20 05:06:35;;;;;;;;;7.67;6.33;;;;;19.29;56.64;98581.91;4800106;28;104068;-83
2021/10/20 05:09:02;;;;;;;;;4.67;4.67;;;;;19.31;56.69;98579.75;4823188;28;102637;-83
2021/10/20 05:11:29;;;;;;;;;7.67;6.00;;;;;19.33;56.71;98580.31;4826622;28;102347;-83
2021/10/20 05:13:56;;;;;;;;;5.33;4.33;;;;;19.34;56.58;98584.72;4834019;28;102471;-82
2021/10/20 05:16:23;;;;;;;;;7.33;4.33;;;;;19.36;56.38;98577.03;4821045;28;104165;-83
2021/10/20 05:18:50;;;;;;;;;6.00;5.33;;;;;19.38;56.48;98568.56;4814745;28;102535;-84
2021/10/20 05:21:18;;;;;;;;;8.00;6.00;;;;;19.38;56.51;98572.16;4834109;28;102075;-81
2021/10/20 05:23:49;;;;;;;;;7.67;5.67;;;;;19.40;56.52;98570.00;4825904;28;103606;-83
2021/10/20 05:26:17;;;;;;;;;5.00;5.00;;;;;19.42;56.35;98569.72;4807261;28;104079;-83
2021/10/20 05:28:44;;;;;;;;;7.00;4.00;;;;;19.42;56.44;98565.06;4833951;28;102222;-83
2021/10/20 05:31:11;;;;;;;;;4.00;4.00;;;;;19.43;56.46;98565.88;4828172;28;102223;-84
2021/10/20 05:33:38;;;;;;;;;6.00;5.00;;;;;19.45;56.18;98559.06;4809858;28;103400;-83
2021/10/20 05:36:05;;;;;;;;;4.00;3.00;;;;;19.45;56.42;98559.06;4823516;28;104067;-83
2021/10/20 05:38:32;;;;;;;;;6.00;5.00;;;;;19.46;56.39;98563.47;4827969;28;104004;-83
2021/10/20 05:41:01;;;;;;;;;5.67;5.00;;;;;19.48;56.19;98563.22;4820474;28;102456;-82
2021/10/20 05:43:28;;;;;;;;;6.00;6.00;;;;;19.48;56.19;98555.84;4830443;28;102048;-84
2021/10/20 05:45:55;;;;;;;;;5.33;4.00;;;;;19.49;56.01;98554.75;4827297;28;104014;-83
2021/10/20 05:48:23;;;;;;;;;6.00;5.33;;;;;19.50;56.12;98556.38;4824941;28;109445;-83
2021/10/20 05:50:51;;;;;;;;;6.33;5.33;;;;;19.53;56.17;98550.41;4817727;28;102324;-84
2021/10/20 05:53:18;;;;;;;;;6.67;5.67;;;;;19.53;55.99;98544.09;4827327;28;103799;-84
2021/10/20 05:55:45;;;;;;;;;6.00;5.00;;;;;19.54;55.91;98535.56;4824604;28;104023;-83
2021/10/20 05:58:12;;;;;;;;;5.67;4.33;;;;;19.54;56.03;98534.78;4821740;28;105080;-82
2021/10/20 06:00:39;;;;;;;;;7.67;5.33;;;;;19.56;55.98;98527.94;4818876;28;102165;-82
2021/10/20 06:03:06;;;;;;;;;7.00;5.33;;;;;19.56;56.04;98533.41;4817656;28;102503;-83
2021/10/20 06:05:35;;;;;;;;;5.33;3.67;;;;;19.57;55.89;98529.59;4824653;28;103308;-83
2021/10/20 06:08:02;;;;;;;;;6.00;5.00;;;;;19.58;55.86;98535.91;4834485;28;102596;-83
2021/10/20 06:10:29;;;;;;;;;6.00;5.67;;;;;19.59;55.85;98532.88;4826406;28;102538;-83
2021/10/20 06:12:56;;;;;;;;;7.33;4.67;;;;;19.59;55.75;98535.63;4823854;28;102970;-83
2021/10/20 06:15:24;;;;;;;;;5.33;5.33;;;;;19.59;55.78;98532.88;4829259;28;104093;-83
2021/10/20 06:18:07;;;;;;;;;4.67;4.00;;;;;19.60;55.62;98522.75;4816917;28;102677;-82
2021/10/20 06:20:34;;;;;;;;;5.00;4.00;;;;;19.60;55.56;98523.56;4827010;28;102475;-82
2021/10/20 06:23:02;;;;;;;;;5.00;4.00;;;;;19.60;55.68;98520.84;4826997;28;103250;-87
2021/10/20 06:25:30;;;;;;;;;5.00;4.00;;;;;19.62;55.74;98522.50;4811625;28;104215;-87
2021/10/20 06:27:57;;;;;;;;;4.67;4.00;;;;;19.63;55.57;98521.41;4822640;28;102549;-86
2021/10/20 06:30:24;;;;;;;;;5.00;5.00;;;;;19.63;55.53;98538.69;4827477;28;102236;-88
2021/10/20 06:32:51;;;;;;;;;5.67;4.00;;;;;19.62;55.88;98530.72;4828914;28;103265;-87
2021/10/20 06:35:18;;;;;;;;;4.00;4.00;;;;;19.66;55.51;98548.31;4803842;28;104263;-87
2021/10/20 06:37:46;;;;;;;;;6.33;5.33;;;;;19.67;55.69;98534.34;4814366;28;102459;-87
2021/10/20 06:40:13;;;;;;;;;5.00;4.00;;;;;19.68;55.36;98540.66;4829597;28;102545;-88
2021/10/20 06:42:40;;;;;;;;;4.00;4.00;;;;;19.68;55.42;98543.41;4812220;28;103266;-87
2021/10/20 06:45:08;;;;;;;;;5.67;5.00;;;;;19.70;55.42;98538.47;4821355;28;104102;-87
2021/10/20 06:47:35;;;;;;;;;4.67;4.00;;;;;19.71;55.39;98549.19;4824782;28;103093;-86
2021/10/20 06:50:02;;;;;;;;;5.00;4.00;;;;;19.70;55.30;98555.75;4825156;28;103145;-87
2021/10/20 06:52:29;;;;;;;;;4.00;3.67;;;;;19.71;55.54;98557.41;4792364;28;102207;-87
2021/10/20 06:54:56;;;;;;;;;4.00;3.33;;;;;19.73;55.53;98551.66;4823402;28;104287;-86
2021/10/20 06:57:23;;;;;;;;;5.33;4.00;;;;;19.73;55.24;98554.41;4806129;28;104656;-86
2021/10/20 06:59:50;;;;;;;;;3.67;3.00;;;;;19.72;55.08;98545.38;4802259;28;102187;-87
2021/10/20 07:02:20;;;;;;;;;4.33;4.33;;;;;19.73;55.48;98554.41;4811968;28;102540;-86
2021/10/20 07:04:49;;;;;;;;;5.00;4.00;;;;;19.75;55.47;98547.56;4791341;28;103181;-87
2021/10/20 07:07:16;;;;;;;;;3.00;3.00;;;;;19.76;55.42;98548.41;4806500;28;104122;-87
2021/10/20 07:09:43;;;;;;;;;6.00;5.00;;;;;19.74;55.26;98536.84;4801256;29;103819;-87
2021/10/20 07:12:10;;;;;;;;;4.00;4.00;;;;;19.77;55.19;98539.88;4801156;28;103536;-87
2021/10/20 07:14:37;;;;;;;;;4.00;4.00;;;;;19.78;54.90;98536.06;4809800;28;104055;-87
2021/10/20 07:17:08;;;;;;;;;5.00;4.00;;;;;19.78;54.95;98546.22;4807044;28;102691;-88
2021/10/20 07:19:38;;;;;;;;;4.00;3.33;;;;;19.80;55.06;98546.78;4787426;29;102399;-88
2021/10/20 07:22:06;;;;;;;;;5.00;4.33;;;;;19.76;54.96;98538.25;4801187;28;104559;-88
2021/10/20 07:24:33;;;;;;;;;6.00;4.00;;;;;19.80;54.94;98541.31;4847445;28;104193;-88
2021/10/20 07:27:01;;;;;;;;;4.33;4.00;;;;;19.81;55.01;98537.47;4835537;28;102547;-88
2021/10/20 07:29:28;;;;;;;;;3.00;2.00;;;;;19.80;55.00;98533.06;4805875;28;107860;-86
2021/10/20 07:31:55;;;;;;;;;3.00;3.00;;;;;19.81;54.84;98540.22;4845935;28;102381;-86
2021/10/20 07:34:22;;;;;;;;;2.33;2.00;;;;;19.83;55.19;98541.59;4827297;28;104106;-86
2021/10/20 07:36:55;;;;;;;;;2.33;2.33;;;;;19.83;54.90;98546.25;4818559;28;103117;-86
2021/10/20 07:39:22;;;;;;;;;4.00;3.00;;;;;19.83;54.96;98543.50;4833323;28;102328;-87
2021/10/20 07:41:49;;;;;;;;;4.00;4.00;;;;;19.84;54.60;98545.16;4828889;28;102645;-88
2021/10/20 07:44:21;;;;;;;;;3.00;3.00;;;;;19.85;54.94;98541.34;4825572;28;104485;-85
2021/10/20 07:46:48;;;;;;;;;3.33;3.00;;;;;19.84;54.89;98540.50;4833489;28;102518;-86
2021/10/20 07:49:15;;;;;;;;;5.67;4.00;;;;;19.85;54.81;98542.19;4827244;28;102507;-87
2021/10/20 07:51:45;;;;;;;;;4.00;3.67;;;;;19.86;54.92;98543.81;4837794;28;102174;-86
2021/10/20 07:54:12;;;;;;;;;4.00;3.00;;;;;19.86;55.00;98538.31;4831607;28;108827;-87
2021/10/20 07:56:42;;;;;;;;;5.00;4.00;;;;;19.87;54.72;98536.41;4828446;28;102263;-87
2021/10/20 07:59:09;;;;;;;;;4.00;4.00;;;;;19.84;54.99;98517.72;4780790;28;104146;-86
2021/10/20 08:01:36;;;;;;;;;4.33;4.00;;;;;19.88;54.85;98535.31;4806154;28;102614;-86
2021/10/20 08:04:07;;;;;;;;;4.33;3.33;;;;;19.84;54.99;98529.53;4824645;28;105337;-87
2021/10/20 08:06:34;;;;;;;;;3.67;3.00;;;;;19.87;54.90;98539.97;4828756;28;110850;-85
2021/10/20 08:09:01;;;;;;;;;5.00;3.00;;;;;19.86;54.87;98541.06;4799698;28;102582;-87
2021/10/20 08:11:28;;;;;;;;;3.67;3.67;;;;;19.88;54.71;98535.31;4828427;28;102622;-87
2021/10/20 08:13:55;;;;;;;;;3.50;3.00;;;;;19.88;54.55;98527.09;4807706;28;103226;-86
2021/10/20 08:16:22;;;;;;;;;4.00;3.00;;;;;19.89;54.88;98523.25;4825125;28;102217;-85
2021/10/20 08:18:49;;;;;;;;;4.67;3.00;;;;;19.89;54.71;98531.50;4829956;28;104343;-86
2021/10/20 08:21:16;;;;;;;;;4.67;3.67;;;;;19.90;54.82;98531.22;4831314;28;102414;-85
2021/10/20 08:23:43;;;;;;;;;4.33;3.00;;;;;19.90;54.82;98527.66;4830793;28;105177;-87
2021/10/20 08:26:10;;;;;;;;;4.00;3.67;;;;;19.90;54.46;98528.47;4838403;28;102595;-87
2021/10/20 08:28:38;;;;;;;;;4.00;4.00;;;;;19.91;54.55;98518.31;4821053;28;102601;-88
2021/10/20 08:31:05;;;;;;;;;3.33;3.00;;;;;19.91;54.37;98521.06;4831920;28;102531;-86
2021/10/20 08:33:32;;;;;;;;;3.67;3.00;;;;;19.91;54.63;98508.19;4803578;28;104053;-87
2021/10/20 08:35:59;;;;;;;;;4.00;3.00;;;;;19.91;54.40;98501.84;4833403;28;102289;-86
2021/10/20 08:38:26;;;;;;;;;4.00;4.00;;;;;19.92;54.56;98498.03;4820505;28;102155;-86
2021/10/20 08:40:55;;;;;;;;;3.67;3.67;;;;;19.92;54.55;98509.00;4835350;28;102497;-86
2021/10/20 08:43:22;;;;;;;;;4.33;3.00;;;;;19.91;54.76;98497.19;4812917;28;105592;-86
2021/10/20 08:45:49;;;;;;;;;3.33;3.33;;;;;19.92;54.55;98504.34;4808559;28;103439;-88
2021/10/20 08:48:21;;;;;;;;;4.00;4.00;;;;;19.92;54.36;98506.25;4820002;28;102365;-86
2021/10/20 08:50:54;;;;;;;;;4.33;4.00;;;;;19.93;54.25;98495.03;4840937;28;102381;-86
2021/10/20 08:53:21;;;;;;;;;4.00;3.00;;;;;19.94;54.46;98515.06;4813083;28;104341;-87
2021/10/20 08:55:49;;;;;;;;;4.00;3.67;;;;;19.95;54.29;98500.22;4806726;28;102589;-87
2021/10/20 08:58:16;;;;;;;;;5.00;4.00;;;;;19.95;54.63;98495.56;4821338;28;102239;-87
2021/10/20 09:00:43;;;;;;;;;3.33;3.00;;;;;19.96;54.43;98493.66;4824808;28;102511;-86
2021/10/20 09:03:11;;;;;;;;;4.00;4.00;;;;;19.95;54.02;98490.09;4809665;28;109685;-86
2021/10/20 09:05:39;;;;;;;;;3.00;2.67;;;;;19.97;54.27;98487.09;4819091;28;102607;-88
2021/10/20 09:08:06;;;;;;;;;4.00;4.00;;;;;19.97;54.36;98492.56;4825413;28;102064;-87
2021/10/20 09:10:35;;;;;;;;;4.00;3.67;;;;;19.97;54.28;98485.19;4808238;28;102257;-86
2021/10/20 09:13:02;;;;;;;;;4.33;4.00;;;;;19.97;54.11;98478.84;4796413;28;104046;-86
2021/10/20 09:15:32;;;;;;;;;4.00;4.00;;;;;19.98;54.32;98486.00;4823494;28;102662;-87
2021/10/20 09:18:03;;;;;;;;;4.00;4.00;;;;;19.97;54.28;98485.19;4831029;28;103246;-86
2021/10/20 09:20:38;;;;;;;;;3.33;3.00;;;;;19.97;54.23;98473.38;4836551;28;102516;-87
2021/10/20 09:23:13;;;;;;;;;3.00;3.00;;;;;19.97;54.05;98478.84;4799114;28;103922;-86
2021/10/20 09:25:43;;;;;;;;;4.00;2.67;;;;;19.96;54.42;98483.50;4827822;28;102268;-86
2021/10/20 09:28:21;;;;;;;;;3.00;3.00;;;;;19.97;54.02;98467.88;4837341;28;103993;-87
2021/10/20 09:30:49;;;;;;;;;3.33;3.33;;;;;19.97;54.25;98462.38;4826679;28;102699;-87
2021/10/20 09:33:16;;;;;;;;;3.67;3.00;;;;;19.96;53.98;98468.97;4824491;28;104268;-85
2021/10/20 09:35:43;;;;;;;;;3.00;3.00;;;;;19.98;54.03;98466.78;4814426;29;102183;-86
2021/10/20 09:38:11;;;;;;;;;3.67;3.67;;;;;20.00;54.00;98459.09;4837590;28;109763;-87
2021/10/20 09:40:43;;;;;;;;;3.33;3.00;;;;;20.00;53.80;98456.34;4812928;28;102401;-87
2021/10/20 09:43:13;;;;;;;;;4.00;4.00;;;;;20.00;54.32;98450.88;4813684;28;103771;-86
2021/10/20 09:45:41;;;;;;;;;4.00;3.67;;;;;20.00;53.97;98448.13;4827375;28;102750;-86
2021/10/20 09:48:11;;;;;;;;;5.00;3.33;;;;;19.98;54.14;98453.91;4824663;28;103497;-85
2021/10/20 09:50:53;;;;;;;;;4.00;4.00;;;;;19.97;54.11;98445.91;4789218;29;102776;-87
2021/10/20 09:53:20;;;;;;;;;5.00;4.00;;;;;20.00;53.98;98439.88;4786106;29;109016;-88
2021/10/20 09:55:47;;;;;;;;;5.00;4.67;;;;;19.97;53.87;98434.94;4817745;28;102490;-85
2021/10/20 09:58:14;;;;;;;;;5.00;5.00;;;;;20.00;54.02;98428.91;4813354;28;102180;-87
2021/10/20 10:00:42;;;;;;;;;4.00;3.00;;;;;19.99;53.71;98425.34;4838998;28;103986;-86
2021/10/20 10:03:10;;;;;;;;;4.67;4.00;;;;;19.97;54.05;98419.31;4799253;29;104143;-87
2021/10/20 10:05:37;;;;;;;;;3.00;3.00;;;;;20.01;53.83;98420.41;4810318;28;102276;-87
2021/10/20 10:08:04;;;;;;;;;3.00;3.00;;;;;20.01;53.85;98420.41;4828993;28;102694;-86
2021/10/20 10:10:32;;;;;;;;;4.33;4.00;;;;;20.02;53.82;98415.75;4829122;28;103667;-87
2021/10/20 10:13:06;;;;;;;;;4.00;4.00;;;;;20.03;53.74;98414.69;4794545;28;104057;-87
2021/10/20 10:15:36;;;;;;;;;5.67;4.00;;;;;20.05;53.93;98417.97;4810884;28;102803;-86
2021/10/20 10:18:05;;;;;;;;;3.00;3.00;;;;;20.04;53.65;98408.06;4828999;28;103693;-86
2021/10/20 10:20:36;;;;;;;;;4.33;4.00;;;;;20.04;53.88;98405.31;4828346;28;103710;-86
2021/10/20 10:23:08;;;;;;;;;3.67;3.00;;;;;20.05;53.67;98405.06;4824411;28;104091;-86
2021/10/20 10:25:40;;;;;;;;;4.33;4.00;;;;;20.06;53.98;98411.38;4823596;28;102573;-88
2021/10/20 10:28:21;;;;;;;;;3.33;3.00;;;;;20.05;53.64;98402.31;4823695;28;102647;-87
2021/10/20 10:31:02;;;;;;;;;3.67;3.67;;;;;20.07;53.52;98396.56;4828329;28;102230;-86
2021/10/20 10:33:31;;;;;;;;;3.33;2.33;;;;;20.07;53.58;98391.09;4840248;28;104119;-88
2021/10/20 10:36:16;;;;;;;;;3.33;3.00;;;;;20.07;53.81;98391.09;4832788;28;102393;-86
2021/10/20 10:38:52;;;;;;;;;4.00;3.00;;;;;20.08;53.91;98384.50;4810290;28;102496;-88
2021/10/20 10:41:21;;;;;;;;;4.00;4.00;;;;;20.09;53.85;98386.13;4825998;28;103433;-87
2021/10/20 10:46:37;;;;;;;;;4.33;3.00;;;;;20.10;53.57;98378.72;4828348;28;102895;-86
2021/10/20 10:49:20;;;;;;;;;4.00;3.00;;;;;20.10;53.54;98357.59;4834047;28;102214;-87
2021/10/20 10:52:13;;;;;;;;;4.33;4.33;;;;;20.11;53.85;98364.75;4824976;28;103997;-85
2021/10/20 10:54:45;;;;;;;;;4.00;3.00;;;;;20.12;53.90;98357.34;4816227;28;104129;-86
2021/10/20 10:57:13;;;;;;;;;4.00;3.33;;;;;20.12;53.79;98347.19;4813196;29;102126;-87
2021/10/20 11:00:15;;;;;;;;;4.00;4.00;;;;;20.12;53.53;98340.88;4830923;28;102501;-85
2021/10/20 11:02:47;;;;;;;;;5.33;3.00;;;;;20.13;53.54;98346.06;4790571;28;103337;-88
2021/10/20 11:05:14;;;;;;;;;4.00;4.00;;;;;20.15;53.66;98332.09;4829112;28;108728;-87
2021/10/20 11:07:45;;;;;;;;;4.00;3.33;;;;;20.15;53.50;98332.91;4822274;28;104053;-88
2021/10/20 11:10:13;;;;;;;;;3.67;3.67;;;;;20.16;53.58;98315.34;4831996;28;102470;-86
2021/10/20 11:12:43;;;;;;;;;3.00;3.00;;;;;20.16;53.40;98301.63;4793992;28;103394;-87
2021/10/20 11:15:10;;;;;;;;;3.00;3.00;;;;;20.19;53.55;98313.97;4820703;28;104313;-85
2021/10/20 11:17:37;;;;;;;;;5.00;5.00;;;;;20.19;53.49;98303.00;4820468;28;103976;-86
2021/10/20 11:20:11;;;;;;;;;5.00;5.00;;;;;20.19;53.75;98303.81;4831562;28;102538;-86
2021/10/20 11:22:38;;;;;;;;;4.00;3.00;;;;;20.20;53.80;98297.25;4825667;28;102345;-87
2021/10/20 11:25:07;;;;;;;;;4.33;4.00;;;;;20.22;53.60;98295.03;4835117;28;104344;-86
2021/10/20 11:27:34;;;;;;;;;4.00;3.67;;;;;20.21;53.39;98279.69;4829188;28;102173;-87
2021/10/20 11:30:05;;;;;;;;;5.00;3.00;;;;;20.23;53.46;98280.22;4829071;28;103555;-87
2021/10/20 11:32:33;;;;;;;;;3.00;3.00;;;;;20.24;53.56;98273.63;4837379;28;102160;-87